Time;durP1;ratioP1;P1;durP2;ratioP2;P2;SDS_P1;SDS_P2;PMS_P1;PMS_P2;Temp;Humidity;BMP_temperature;BMP_pressure;BME280_temperature;BME280_humidity;BME280_pressure;Samples;Min_cycle;Max_cycle;Signal;HPM_P1;HPM_P2
2022/08/07 00:01:00;;;;;;;3.45;2.90;;;;;;;15.03;95.39;102575.28;5233205;28;20404;-73
2022/08/07 00:03:32;;;;;;;4.35;2.85;;;;;;;14.95;95.61;102575.03;5234037;28;20439;-73
2022/08/07 00:06:04;;;;;;;3.97;2.90;;;;;;;14.90;96.15;102574.56;5234328;28;20018;-73
2022/08/07 00:08:36;;;;;;;3.93;2.77;;;;;;;14.73;99.91;102574.00;5232156;28;20025;-73
2022/08/07 00:11:07;;;;;;;5.15;2.95;;;;;;;14.80;97.35;102569.13;5233184;28;20020;-73
2022/08/07 00:13:39;;;;;;;5.13;3.13;;;;;;;14.77;97.89;102564.94;5232764;28;20056;-73
2022/08/07 00:16:11;;;;;;;3.92;2.72;;;;;;;14.66;97.99;102567.53;5234004;28;20475;-73
2022/08/07 00:18:43;;;;;;;4.50;3.10;;;;;;;14.65;98.27;102570.25;5233349;28;20029;-73
2022/08/07 00:21:14;;;;;;;3.63;2.70;;;;;;;14.69;96.60;102567.28;5216367;28;20067;-73
2022/08/07 00:23:45;;;;;;;3.85;2.88;;;;;;;14.62;99.43;102565.22;5232875;28;20384;-73
2022/08/07 00:26:16;;;;;;;5.32;2.97;;;;;;;14.62;99.53;102560.78;5231246;28;20052;-73
2022/08/07 00:28:48;;;;;;;4.38;3.33;;;;;;;14.57;99.07;102549.72;5232945;28;20115;-73
2022/08/07 00:31:19;;;;;;;3.25;2.78;;;;;;;14.58;97.82;102554.03;5233865;28;20442;-73
2022/08/07 00:33:50;;;;;;;6.82;2.83;;;;;;;14.53;99.90;102549.13;5232710;28;20025;-73
2022/08/07 00:36:21;;;;;;;3.78;3.15;;;;;;;14.58;99.56;102554.03;5231856;28;20021;-73
2022/08/07 00:38:53;;;;;;;5.95;3.10;;;;;;;14.50;99.70;102535.31;5233093;28;20052;-73
2022/08/07 00:41:31;;;;;;;4.03;3.00;;;;;;;14.53;100.00;102540.38;5233177;28;20055;-73
2022/08/07 00:44:02;;;;;;;5.15;3.25;;;;;;;14.34;100.00;102531.16;5234287;28;20041;-73
2022/08/07 00:46:34;;;;;;;4.43;3.30;;;;;;;14.36;100.00;102531.91;5232509;28;20503;-73
2022/08/07 00:49:06;;;;;;;6.43;3.35;;;;;;;14.33;100.00;102533.91;5233997;28;20058;-73
2022/08/07 00:51:37;;;;;;;5.13;3.05;;;;;;;14.29;100.00;102540.38;5233453;28;20058;-73
2022/08/07 00:54:08;;;;;;;3.83;2.85;;;;;;;14.31;100.00;102539.28;5232413;28;20139;-73
2022/08/07 00:56:40;;;;;;;4.43;3.22;;;;;;;14.27;100.00;102537.81;5232088;28;20515;-73
2022/08/07 00:59:11;;;;;;;4.22;3.00;;;;;;;14.26;100.00;102530.03;5234021;28;20033;-73
2022/08/07 01:01:43;;;;;;;3.30;3.00;;;;;;;14.20;100.00;102539.22;5232940;28;20303;-73
2022/08/07 01:04:15;;;;;;;4.75;3.45;;;;;;;14.22;100.00;102526.78;5231791;28;20112;-73
2022/08/07 01:06:47;;;;;;;4.13;3.07;;;;;;;14.25;100.00;102526.56;5234591;28;20552;-73
2022/08/07 01:09:18;;;;;;;5.60;3.50;;;;;;;14.21;100.00;102522.47;5235658;28;20100;-73
2022/08/07 01:11:50;;;;;;;5.07;3.40;;;;;;;14.09;100.00;102526.00;5232803;28;20029;-73
2022/08/07 01:14:23;;;;;;;4.40;3.72;;;;;;;14.10;100.00;102528.53;5233430;28;20029;-73
2022/08/07 01:16:55;;;;;;;5.68;3.03;;;;;;;14.07;100.00;102517.38;5232651;28;20120;-73
2022/08/07 01:19:29;;;;;;;3.92;3.38;;;;;;;14.03;100.00;102529.94;5234015;28;20025;-73
2022/08/07 01:22:02;;;;;;;4.55;3.35;;;;;;;13.99;100.00;102523.19;5231928;28;20362;-71
2022/08/07 01:24:34;;;;;;;4.68;3.28;;;;;;;13.98;100.00;102515.38;5232811;28;20021;-71
2022/08/07 01:27:06;;;;;;;4.47;3.67;;;;;;;13.96;100.00;102522.56;5233585;28;20449;-71
2022/08/07 01:29:37;;;;;;;4.80;3.35;;;;;;;14.00;100.00;102508.22;5233681;28;20072;-74
2022/08/07 01:32:09;;;;;;;6.38;3.35;;;;;;;14.00;100.00;102513.50;5232541;28;20021;-71
2022/08/07 01:34:43;;;;;;;5.68;2.97;;;;;;;13.95;100.00;102513.00;5233860;28;20029;-72
2022/08/07 01:37:16;;;;;;;5.82;3.60;;;;;;;13.76;100.00;102516.13;5231486;28;20485;-71
2022/08/07 01:39:47;;;;;;;4.28;3.60;;;;;;;13.86;100.00;102506.59;5231459;28;20531;-71
2022/08/07 01:42:19;;;;;;;5.50;3.67;;;;;;;13.79;100.00;102502.72;5232993;28;20021;-71
2022/08/07 01:44:51;;;;;;;8.38;3.72;;;;;;;13.73;100.00;102503.16;5232568;28;20029;-71
2022/08/07 01:47:23;;;;;;;5.53;4.05;;;;;;;13.73;100.00;102506.63;5231077;28;20022;-71
2022/08/07 01:49:54;;;;;;;5.55;3.70;;;;;;;13.69;100.00;102504.34;5232398;28;20025;-71
2022/08/07 01:52:30;;;;;;;6.97;3.53;;;;;;;13.78;100.00;102507.13;5233406;28;20090;-71
2022/08/07 01:55:02;;;;;;;10.98;4.75;;;;;;;13.66;100.00;102510.66;5233069;28;20064;-72
2022/08/07 01:57:35;;;;;;;4.90;3.50;;;;;;;13.72;100.00;102502.31;5231271;28;20109;-72
2022/08/07 02:00:10;;;;;;;6.15;3.75;;;;;;;13.67;100.00;102507.06;5231720;28;20617;-72
2022/08/07 02:02:58;;;;;;;5.72;4.15;;;;;;;13.85;100.00;102495.19;5232074;28;20116;-72
2022/08/07 02:05:36;;;;;;;5.35;3.47;;;;;;;13.75;100.00;102506.50;5229567;28;20762;-72
2022/08/07 02:08:11;;;;;;;6.25;4.15;;;;;;;13.66;100.00;102500.13;5233247;28;20112;-72
2022/08/07 02:10:47;;;;;;;7.88;3.97;;;;;;;13.61;100.00;102499.63;5231745;28;20017;-72
2022/08/07 02:13:23;;;;;;;5.43;3.72;;;;;;;13.61;100.00;102494.34;5230987;28;20544;-72
2022/08/07 02:15:59;;;;;;;5.10;3.70;;;;;;;13.59;100.00;102507.59;5233714;28;20084;-71
2022/08/07 02:18:35;;;;;;;5.55;3.80;;;;;;;13.53;100.00;102497.53;5232609;28;20022;-73
2022/08/07 02:21:07;;;;;;;6.38;4.22;;;;;;;13.47;100.00;102492.69;5233273;28;20078;-71
2022/08/07 02:23:40;;;;;;;6.82;4.43;;;;;;;13.39;100.00;102495.84;5230489;28;20040;-72
2022/08/07 02:26:12;;;;;;;5.97;4.18;;;;;;;13.37;100.00;102492.50;5232037;28;20034;-72
2022/08/07 02:28:45;;;;;;;7.18;4.60;;;;;;;13.38;100.00;102494.19;5234655;28;20030;-71
2022/08/07 02:31:18;;;;;;;7.35;4.28;;;;;;;13.38;100.00;102491.56;5235177;28;20063;-71
2022/08/07 02:33:51;;;;;;;5.45;3.67;;;;;;;13.45;100.00;102493.72;5236181;28;20086;-72
2022/08/07 02:36:23;;;;;;;;;;;;;;;14.08;100.00;102487.41;5233761;28;20083;-72
2022/08/07 02:38:57;;;;;;;5.28;3.72;;;;;;;13.42;100.00;102493.97;5235244;28;19913;-71
2022/08/07 02:41:29;;;;;;;4.55;3.88;;;;;;;13.27;100.00;102490.63;5237516;28;20021;-71
2022/08/07 02:44:02;;;;;;;6.28;4.45;;;;;;;13.30;100.00;102491.25;5237041;28;20414;-71
2022/08/07 02:46:34;;;;;;;4.82;4.28;;;;;;;13.29;100.00;102488.72;5238055;28;20508;-71
2022/08/07 02:49:06;;;;;;;6.50;4.68;;;;;;;13.28;100.00;102487.03;5237205;28;20071;-71
2022/08/07 02:51:39;;;;;;;5.18;4.63;;;;;;;13.15;100.00;102474.72;5235781;28;20464;-71
2022/08/07 02:54:11;;;;;;;6.82;4.55;;;;;;;13.17;100.00;102479.84;5235581;28;20034;-71
2022/08/07 02:56:45;;;;;;;4.70;4.30;;;;;;;13.06;100.00;102477.13;5237884;28;20064;-71
2022/08/07 02:59:20;;;;;;;5.32;4.43;;;;;;;13.10;100.00;102476.78;5237271;28;20033;-71
2022/08/07 03:01:53;;;;;;;6.65;4.30;;;;;;;13.05;100.00;102476.28;5236098;28;20519;-71
2022/08/07 03:04:25;;;;;;;6.97;4.40;;;;;;;13.07;100.00;102484.09;5236557;28;20501;-71
2022/08/07 03:06:58;;;;;;;7.80;4.75;;;;;;;12.99;100.00;102468.81;5236869;28;20124;-71
2022/08/07 03:09:32;;;;;;;5.15;4.50;;;;;;;13.02;100.00;102479.13;5235725;28;20299;-71
2022/08/07 03:12:05;;;;;;;4.55;4.07;;;;;;;13.04;100.00;102477.25;5234206;28;20029;-71
2022/08/07 03:14:38;;;;;;;5.00;4.35;;;;;;;13.02;100.00;102478.28;5235518;28;20030;-71
2022/08/07 03:17:10;;;;;;;8.23;4.78;;;;;;;13.04;100.00;102474.59;5237777;28;20029;-70
2022/08/07 03:19:41;;;;;;;5.82;4.35;;;;;;;12.98;100.00;102474.19;5226077;28;20037;-70
2022/08/07 03:22:13;;;;;;;6.18;4.50;;;;;;;12.91;100.00;102482.50;5237659;28;20030;-70
2022/08/07 03:24:45;;;;;;;7.35;4.65;;;;;;;12.91;100.00;102479.84;5235888;28;20397;-70
2022/08/07 03:27:17;;;;;;;5.22;4.10;;;;;;;12.97;100.00;102478.59;5236204;28;20025;-70
2022/08/07 03:29:50;;;;;;;5.30;4.20;;;;;;;12.97;100.00;102469.88;5237356;28;20040;-70
2022/08/07 03:32:25;;;;;;;5.45;4.30;;;;;;;13.01;100.00;102473.97;5236211;28;20619;-70
2022/08/07 03:35:01;;;;;;;5.63;4.30;;;;;;;12.88;100.00;102474.00;5237305;28;20046;-70
2022/08/07 03:37:35;;;;;;;6.75;4.70;;;;;;;12.87;100.00;102473.13;5234787;28;20111;-70
2022/08/07 03:40:07;;;;;;;5.53;4.60;;;;;;;12.89;100.00;102467.78;5233179;28;20064;-70
2022/08/07 03:42:39;;;;;;;8.05;4.90;;;;;;;12.89;100.00;102473.03;5237685;28;20105;-72
2022/08/07 03:45:11;;;;;;;5.25;4.60;;;;;;;12.84;100.00;102468.09;5235611;28;20488;-72
2022/08/07 03:47:42;;;;;;;5.53;4.78;;;;;;;12.85;100.00;102471.56;5236982;28;20036;-72
2022/08/07 03:50:16;;;;;;;4.50;4.07;;;;;;;12.86;100.00;102471.44;5235538;28;20052;-72
2022/08/07 03:52:50;;;;;;;5.82;4.40;;;;;;;12.80;100.00;102474.47;5235887;28;20041;-72
2022/08/07 03:55:21;;;;;;;7.25;4.65;;;;;;;12.95;100.00;102480.50;5236160;28;20033;-72
2022/08/07 03:57:53;;;;;;;4.88;4.35;;;;;;;12.82;100.00;102480.50;5236146;28;20489;-72
2022/08/07 04:00:25;;;;;;;8.10;4.68;;;;;;;12.87;100.00;102481.00;5234130;28;20181;-72
2022/08/07 04:02:58;;;;;;;4.90;4.18;;;;;;;12.84;100.00;102490.91;5234273;28;20053;-72
2022/08/07 04:05:29;;;;;;;6.05;4.70;;;;;;;12.83;100.00;102484.81;5235279;28;20029;-72
2022/08/07 04:08:02;;;;;;;6.93;4.70;;;;;;;12.86;100.00;102491.66;5235446;28;20091;-70
2022/08/07 04:10:34;;;;;;;;;;;;;;;13.51;100.00;102491.50;5235322;28;20487;-70
2022/08/07 04:13:06;;;;;;;5.75;4.60;;;;;;;12.84;100.00;102483.00;5234357;28;20015;-70
2022/08/07 04:15:37;;;;;;;7.20;4.73;;;;;;;12.74;100.00;102492.50;5236393;28;20037;-71
2022/08/07 04:18:14;;;;;;;5.10;4.60;;;;;;;12.78;100.00;102494.81;5236947;28;20920;-70
2022/08/07 04:20:46;;;;;;;10.00;4.95;;;;;;;12.73;100.00;102496.91;5233474;28;20116;-71
2022/08/07 04:23:18;;;;;;;6.40;4.82;;;;;;;12.76;100.00;102504.56;5236471;28;20116;-70
2022/08/07 04:25:51;;;;;;;10.27;5.07;;;;;;;12.77;100.00;102497.56;5235495;28;20029;-70
2022/08/07 04:28:23;;;;;;;5.78;4.88;;;;;;;12.69;100.00;102495.44;5235636;28;20029;-73
2022/08/07 04:30:54;;;;;;;6.70;4.72;;;;;;;12.82;100.00;102501.53;5235231;28;20230;-71
2022/08/07 04:33:26;;;;;;;8.05;4.72;;;;;;;12.83;100.00;102499.75;5237291;28;20484;-71
2022/08/07 04:35:58;;;;;;;6.80;4.90;;;;;;;12.80;100.00;102511.31;5236221;28;20036;-70
2022/08/07 04:38:29;;;;;;;7.57;4.97;;;;;;;12.69;100.00;102499.84;5235424;28;20056;-71
2022/08/07 04:41:01;;;;;;;6.82;4.78;;;;;;;12.69;100.00;102500.69;5234768;28;20130;-70
2022/08/07 04:43:36;;;;;;;5.35;4.85;;;;;;;12.72;100.00;102505.72;5236146;28;20032;-70
2022/08/07 04:46:38;;;;;;;7.75;4.45;;;;;;;12.82;100.00;102498.06;5235920;28;20104;-70
2022/08/07 04:49:23;;;;;;;5.60;4.90;;;;;;;12.83;100.00;102499.75;5235112;28;20244;-70
2022/08/07 04:52:11;;;;;;;6.85;4.93;;;;;;;12.76;100.00;102506.38;5234912;28;20448;-70
2022/08/07 04:54:51;;;;;;;7.50;4.47;;;;;;;12.96;100.00;102510.28;5234950;28;20040;-71
2022/08/07 04:57:52;;;;;;;6.22;4.85;;;;;;;12.94;100.00;102509.53;5234752;28;20044;-71
2022/08/07 05:00:44;;;;;;;6.78;5.40;;;;;;;13.01;100.00;102495.03;5214121;28;20049;-71
2022/08/07 05:03:26;;;;;;;6.70;4.80;;;;;;;12.91;100.00;102506.16;5236102;28;20041;-71
2022/08/07 05:06:32;;;;;;;9.25;4.65;;;;;;;12.94;100.00;102507.75;5234815;28;20044;-71
2022/08/07 05:09:09;;;;;;;8.80;5.22;;;;;;;13.06;100.00;102508.69;5232657;28;20427;-71
2022/08/07 05:11:46;;;;;;;5.93;4.97;;;;;;;13.07;100.00;102507.78;5234449;28;20650;-71
2022/08/07 05:14:37;;;;;;;5.57;4.97;;;;;;;13.27;100.00;102509.88;5236224;28;20072;-71
2022/08/07 05:17:12;;;;;;;6.65;5.07;;;;;;;13.17;100.00;102506.16;5224230;28;20075;-71
2022/08/07 05:19:48;;;;;;;5.93;5.32;;;;;;;13.20;100.00;102505.97;5235492;28;20060;-71
2022/08/07 05:22:21;;;;;;;5.32;4.82;;;;;;;13.22;100.00;102521.63;5235561;28;20387;-71
2022/08/07 05:24:56;;;;;;;5.38;4.78;;;;;;;13.28;100.00;102519.47;5233822;28;20037;-71
2022/08/07 05:27:29;;;;;;;5.07;4.57;;;;;;;13.34;100.00;102520.84;5231684;28;20033;-70
2022/08/07 05:30:01;;;;;;;;;;;;;;;13.99;100.00;102523.19;5230598;28;20040;-70
2022/08/07 05:32:32;;;;;;;5.90;5.13;;;;;;;13.58;100.00;102520.91;5229897;28;19917;-71
2022/08/07 05:35:06;;;;;;;7.68;5.93;;;;;;;13.52;100.00;102526.59;5231113;28;20060;-70
2022/08/07 05:37:39;;;;;;;6.88;5.57;;;;;;;13.49;100.00;102525.03;5230488;28;20070;-70
2022/08/07 05:40:12;;;;;;;6.07;5.38;;;;;;;13.60;100.00;102533.00;5231989;28;20041;-70
2022/08/07 05:42:45;;;;;;;8.27;5.43;;;;;;;13.64;100.00;102525.75;5233425;28;20044;-71
2022/08/07 05:45:19;;;;;;;5.88;5.22;;;;;;;13.75;100.00;102523.19;5232927;28;20032;-70
2022/08/07 05:47:52;;;;;;;9.00;5.55;;;;;;;13.78;100.00;102525.56;5232267;28;20029;-71
2022/08/07 05:50:24;;;;;;;15.77;5.85;;;;;;;13.84;100.00;102522.50;5234241;28;20021;-71
2022/08/07 05:52:56;;;;;;;9.43;5.93;;;;;;;13.88;100.00;102513.44;5229785;28;20104;-70
2022/08/07 05:55:31;;;;;;;9.73;6.47;;;;;;;13.97;100.00;102521.63;5229539;28;20026;-70
2022/08/07 05:58:04;;;;;;;10.20;6.07;;;;;;;14.03;100.00;102526.47;5229821;28;20108;-70
2022/08/07 06:00:37;;;;;;;9.02;6.57;;;;;;;14.10;100.00;102522.44;5232468;28;20468;-73
2022/08/07 06:03:09;;;;;;;;;;;;;;;14.70;100.00;102536.44;5236155;28;20025;-71
2022/08/07 06:05:41;;;;;;;8.90;5.90;;;;;;;14.30;100.00;102528.84;5234709;28;19928;-71
2022/08/07 06:08:15;;;;;;;11.85;6.63;;;;;;;14.41;100.00;102531.53;5238333;28;20026;-71
2022/08/07 06:10:47;;;;;;;10.70;6.28;;;;;;;14.49;100.00;102534.47;5238022;28;20483;-71
2022/08/07 06:13:19;;;;;;;8.35;6.03;;;;;;;14.57;100.00;102533.91;5236035;28;20037;-71
2022/08/07 06:15:53;;;;;;;9.35;6.63;;;;;;;14.65;100.00;102528.88;5230638;28;20025;-71
2022/08/07 06:18:24;;;;;;;10.60;6.78;;;;;;;14.82;100.00;102533.75;5235193;28;20037;-70
2022/08/07 06:20:56;;;;;;;7.32;6.55;;;;;;;14.93;100.00;102532.94;5232989;28;20400;-70
2022/08/07 06:23:29;;;;;;;7.57;6.63;;;;;;;15.05;100.00;102536.44;5233462;28;20377;-71
2022/08/07 06:26:01;;;;;;;9.13;6.33;;;;;;;15.17;100.00;102534.63;5237402;28;20037;-71
2022/08/07 06:28:32;;;;;;;8.50;7.60;;;;;;;15.25;100.00;102521.69;5234879;28;20168;-71
2022/08/07 06:31:04;;;;;;;7.75;6.65;;;;;;;15.40;100.00;102524.91;5235406;28;21028;-71
2022/08/07 06:33:35;;;;;;;9.30;7.50;;;;;;;15.54;100.00;102532.59;5236628;28;20065;-71
2022/08/07 06:36:08;;;;;;;10.48;6.95;;;;;;;15.64;100.00;102537.97;5237070;28;20452;-71
2022/08/07 06:38:40;;;;;;;;;;;;;;;16.26;100.00;102530.31;5234154;28;20473;-72
2022/08/07 06:41:17;;;;;;;8.77;7.25;;;;;;;16.07;100.00;102529.31;5238024;28;19917;-71
2022/08/07 06:43:50;;;;;;;9.63;7.10;;;;;;;16.07;100.00;102534.59;5237781;28;20431;-72
2022/08/07 06:46:21;;;;;;;9.70;7.88;;;;;;;16.19;100.00;102520.34;5236446;28;20094;-72
2022/08/07 06:48:53;;;;;;;8.95;7.25;;;;;;;16.33;100.00;102528.00;5236479;28;20029;-70
2022/08/07 06:51:28;;;;;;;8.70;7.40;;;;;;;16.59;100.00;102525.81;5236533;28;20029;-72
2022/08/07 06:54:03;;;;;;;8.88;7.32;;;;;;;16.63;100.00;102523.75;5235849;28;20029;-72
2022/08/07 06:56:49;;;;;;;8.80;7.57;;;;;;;16.76;100.00;102516.50;5236637;28;20037;-71
2022/08/07 06:59:32;;;;;;;8.18;7.20;;;;;;;17.08;100.00;102511.09;5237001;28;20021;-71
2022/08/07 07:02:07;;;;;;;11.25;7.13;;;;;;;17.23;100.00;102509.75;5237137;28;20396;-72
2022/08/07 07:04:38;;;;;;;8.02;7.05;;;;;;;17.25;100.00;102512.31;5236619;28;20033;-71
2022/08/07 07:07:09;;;;;;;9.43;7.85;;;;;;;17.32;100.00;102507.31;5235019;28;20345;-71
2022/08/07 07:09:46;;;;;;;8.15;7.13;;;;;;;17.69;100.00;102511.06;5236291;28;20037;-71
2022/08/07 07:12:32;;;;;;;8.48;7.18;;;;;;;17.78;97.70;102521.84;5235347;28;20079;-71
2022/08/07 07:15:07;;;;;;;8.27;7.47;;;;;;;17.82;97.44;102524.09;5234911;28;20399;-71
2022/08/07 07:18:03;;;;;;;8.23;7.00;;;;;;;17.96;96.20;102525.50;5237034;28;20040;-71
2022/08/07 07:20:38;;;;;;;8.60;7.28;;;;;;;18.14;93.20;102526.47;5236026;28;20055;-72
2022/08/07 07:23:10;;;;;;;7.47;6.55;;;;;;;18.35;92.91;102528.19;5235990;28;20042;-71
2022/08/07 07:25:44;;;;;;;8.73;6.70;;;;;;;18.34;88.76;102519.38;5236914;28;20028;-71
2022/08/07 07:28:20;;;;;;;7.55;6.55;;;;;;;18.52;88.86;102516.84;5237436;28;20442;-71
2022/08/07 07:31:07;;;;;;;7.75;5.85;;;;;;;18.70;88.71;102512.50;5234396;28;20025;-73
2022/08/07 07:33:41;;;;;;;8.98;6.28;;;;;;;18.75;85.82;102509.41;5236712;28;20084;-71
2022/08/07 07:36:13;;;;;;;8.05;6.53;;;;;;;18.96;87.13;102504.75;5237012;28;20026;-71
2022/08/07 07:38:44;;;;;;;6.85;6.00;;;;;;;19.11;85.23;102514.94;5236307;28;20087;-70
2022/08/07 07:41:20;;;;;;;6.85;5.95;;;;;;;19.35;84.06;102509.91;5234697;28;20030;-72
2022/08/07 07:43:53;;;;;;;8.57;6.07;;;;;;;19.30;80.91;102503.38;5236282;28;20025;-72
2022/08/07 07:46:27;;;;;;;7.05;5.55;;;;;;;19.38;79.62;102500.81;5236308;28;20029;-71
2022/08/07 07:48:59;;;;;;;7.80;5.70;;;;;;;19.32;77.34;102501.41;5235791;28;20476;-71
2022/08/07 07:51:31;;;;;;;7.60;5.45;;;;;;;19.49;77.81;102500.63;5233451;28;20064;-71
2022/08/07 07:54:05;;;;;;;8.90;5.57;;;;;;;19.69;76.58;102491.56;5233411;28;20046;-71
2022/08/07 07:56:38;;;;;;;6.00;5.35;;;;;;;19.73;76.96;102486.78;5234298;28;20021;-71
2022/08/07 07:59:12;;;;;;;8.00;5.32;;;;;;;20.03;76.46;102488.25;5233034;28;20059;-71
2022/08/07 08:01:47;;;;;;;6.80;5.30;;;;;;;20.04;73.83;102495.28;5235339;28;20021;-71
2022/08/07 08:04:19;;;;;;;7.13;5.30;;;;;;;20.12;72.36;102495.34;5236687;28;20067;-71
2022/08/07 08:06:52;;;;;;;6.28;4.53;;;;;;;20.39;71.53;102496.22;5235035;28;20033;-71
2022/08/07 08:09:26;;;;;;;9.52;5.22;;;;;;;20.44;70.21;102496.59;5233054;28;20029;-70
2022/08/07 08:11:58;;;;;;;8.38;4.80;;;;;;;20.65;70.24;102496.28;5234597;28;20025;-71
2022/08/07 08:14:34;;;;;;;8.00;5.25;;;;;;;20.81;68.20;102498.22;5236404;28;20075;-71
2022/08/07 08:17:08;;;;;;;6.30;4.55;;;;;;;20.86;67.75;102499.38;5235161;28;20491;-71
2022/08/07 08:19:41;;;;;;;5.20;4.70;;;;;;;20.96;64.66;102501.13;5232417;28;20472;-71
2022/08/07 08:27:55;;;;;;;9.48;4.93;;;;;;;21.50;66.63;102496.38;5235091;28;20041;-71
2022/08/07 08:30:27;;;;;;;6.05;4.25;;;;;;;21.59;63.75;102504.25;5233490;28;20729;-72
2022/08/07 08:33:02;;;;;;;4.68;4.00;;;;;;;21.80;62.25;102506.47;5233768;28;20488;-72
2022/08/07 08:35:36;;;;;;;9.30;4.00;;;;;;;21.74;61.18;102506.28;5230547;28;20494;-72
2022/08/07 08:38:09;;;;;;;5.80;4.25;;;;;;;21.81;61.94;102504.63;5235069;28;20037;-72
2022/08/07 08:40:47;;;;;;;7.60;4.05;;;;;;;22.20;62.19;102499.56;5251047;22;20049;-68
2022/08/07 08:43:30;;;;;;;6.05;3.60;;;;;;;22.10;58.31;102499.66;5230951;28;20037;-69
2022/08/07 08:46:11;;;;;;;7.38;3.45;;;;;;;22.17;57.36;102499.06;5234077;28;20033;-69
2022/08/07 08:48:58;;;;;;;4.45;3.47;;;;;;;22.30;58.05;102491.34;5232798;28;20029;-68
2022/08/07 08:51:34;;;;;;;5.65;3.90;;;;;;;22.15;56.99;102499.19;5211503;28;20044;-69
2022/08/07 08:54:19;;;;;;;4.30;3.30;;;;;;;22.32;56.74;102494.72;5210905;28;20583;-69
2022/08/07 08:56:52;;;;;;;5.10;3.28;;;;;;;22.49;54.49;102493.69;5214391;28;20026;-69
2022/08/07 08:59:36;;;;;;;3.92;3.35;;;;;;;22.56;54.75;102500.00;5213101;28;20033;-69
2022/08/07 09:02:26;;;;;;;5.43;3.40;;;;;;;22.70;54.98;102500.34;5213225;28;20026;-70
2022/08/07 09:05:21;;;;;;;5.65;3.72;;;;;;;23.21;55.38;102496.34;5212501;28;20040;-69
2022/08/07 09:08:17;;;;;;;4.47;3.80;;;;;;;22.92;52.53;102498.81;5211972;28;20164;-68
2022/08/07 09:11:04;;;;;;;5.78;3.28;;;;;;;23.18;51.95;102487.84;5210104;28;20123;-69
2022/08/07 09:14:00;;;;;;;5.32;3.67;;;;;;;23.23;52.49;102480.16;5213750;28;20033;-68
2022/08/07 09:16:46;;;;;;;5.90;3.45;;;;;;;23.44;51.79;102492.91;5213590;28;20096;-68
2022/08/07 09:19:44;;;;;;;4.70;2.95;;;;;;;23.61;50.01;102493.69;5210416;28;20401;-69
2022/08/07 09:22:27;;;;;;;5.15;3.38;;;;;;;23.62;49.95;102482.78;5214444;28;20654;-69
2022/08/07 09:25:13;;;;;;;5.18;3.47;;;;;;;23.53;47.47;102487.38;5211424;28;20519;-69
2022/08/07 09:28:03;;;;;;;4.97;3.42;;;;;;;23.61;48.38;102482.97;5213493;28;20060;-70
2022/08/07 09:30:56;;;;;;;4.28;3.28;;;;;;;23.74;48.36;102484.06;5211707;28;20400;-69
2022/08/07 09:33:51;;;;;;;7.15;4.00;;;;;;;23.99;49.48;102478.56;5212226;28;20039;-68
2022/08/07 09:36:34;;;;;;;5.35;3.42;;;;;;;23.94;48.13;102478.25;5211850;28;20476;-69
2022/08/07 09:39:20;;;;;;;;;;;;;;;24.69;48.42;102472.06;5211071;28;20096;-67
2022/08/07 09:42:10;;;;;;;4.28;3.15;;;;;;;24.34;46.49;102476.25;5210051;28;19943;-68
2022/08/07 09:45:18;;;;;;;5.15;3.28;;;;;;;24.50;47.43;102487.66;5211945;28;20101;-69
2022/08/07 09:48:01;;;;;;;4.05;3.50;;;;;;;24.42;46.31;102477.03;5213273;28;20022;-68
2022/08/07 09:50:48;;;;;;;5.90;3.42;;;;;;;24.23;44.34;102472.16;5214004;28;20080;-69
2022/08/07 09:53:22;;;;;;;7.22;3.50;;;;;;;24.41;44.96;102470.03;5211901;28;20021;-69
2022/08/07 09:56:23;;;;;;;5.13;3.10;;;;;;;24.66;45.21;102464.41;5213703;28;20033;-68
2022/08/07 09:59:26;;;;;;;6.85;3.30;;;;;;;24.75;44.49;102457.94;5212534;28;20034;-68
2022/08/07 10:02:12;;;;;;;3.45;2.55;;;;;;;24.74;43.87;102456.28;5212848;28;20041;-67
2022/08/07 10:05:02;;;;;;;4.70;3.00;;;;;;;24.87;43.82;102452.94;5206710;28;20034;-67
2022/08/07 10:08:14;;;;;;;4.80;3.10;;;;;;;24.78;42.11;102449.53;5210387;28;20119;-68
2022/08/07 10:11:02;;;;;;;3.92;2.42;;;;;;;25.06;42.23;102435.44;5188984;28;20061;-68
2022/08/07 10:13:49;;;;;;;3.53;2.10;;;;;;;25.16;41.92;102438.72;5209748;28;20045;-67
2022/08/07 10:16:31;;;;;;;3.65;2.20;;;;;;;25.16;39.23;102438.72;5212094;28;20045;-68
2022/08/07 10:19:33;;;;;;;4.40;2.10;;;;;;;25.53;38.94;102443.03;5213986;28;20029;-68
2022/08/07 10:22:35;;;;;;;3.63;2.17;;;;;;;25.48;39.23;102438.22;5211940;28;20109;-68
2022/08/07 10:25:34;;;;;;;2.85;1.98;;;;;;;25.58;39.38;102437.09;5212385;28;20141;-67
2022/08/07 10:28:17;;;;;;;3.28;2.50;;;;;;;25.47;37.38;102439.25;5213815;28;20133;-67
2022/08/07 10:31:06;;;;;;;3.95;2.40;;;;;;;25.57;37.91;102433.59;5208082;28;20117;-67
2022/08/07 10:34:05;;;;;;;5.75;2.55;;;;;;;25.60;38.61;102435.06;5211613;28;20627;-67
2022/08/07 10:36:52;;;;;;;2.95;2.28;;;;;;;25.60;38.33;102427.81;5211325;28;20026;-68
2022/08/07 10:39:57;;;;;;;4.28;2.28;;;;;;;25.80;39.92;102435.25;5209956;28;20045;-67
2022/08/07 10:42:47;;;;;;;4.30;2.70;;;;;;;25.78;38.54;102424.72;5213523;28;20053;-68
2022/08/07 10:45:34;;;;;;;3.80;2.33;;;;;;;25.72;37.94;102430.81;5211978;28;20053;-68
2022/08/07 10:48:14;;;;;;;4.78;2.83;;;;;;;25.71;38.52;102426.50;5209730;28;20132;-68
2022/08/07 10:50:53;;;;;;;4.47;2.83;;;;;;;25.67;36.94;102425.22;5212820;28;20120;-68
2022/08/07 10:53:40;;;;;;;3.45;2.30;;;;;;;25.88;37.03;102411.81;5215710;28;20034;-69
2022/08/07 10:56:35;;;;;;;3.60;2.45;;;;;;;26.11;37.29;102421.50;5215056;28;20021;-68
2022/08/07 10:59:27;;;;;;;4.78;2.03;;;;;;;26.19;37.01;102415.97;5212602;28;20180;-69
2022/08/07 11:02:09;;;;;;;3.22;2.03;;;;;;;26.04;35.65;102417.94;5215803;28;20038;-68
2022/08/07 11:04:43;;;;;;;3.38;2.08;;;;;;;26.13;36.04;102412.19;5215598;28;20388;-69
2022/08/07 11:08:02;;;;;;;3.08;1.85;;;;;;;26.38;36.50;102407.22;5215765;28;20112;-69
2022/08/07 11:10:42;;;;;;;3.67;1.98;;;;;;;26.10;34.78;102401.88;5208837;28;20026;-68
2022/08/07 11:13:36;;;;;;;2.47;1.77;;;;;;;26.11;33.59;102395.47;5214970;28;20505;-69
2022/08/07 11:16:14;;;;;;;3.17;1.88;;;;;;;26.19;33.73;102391.81;5214083;28;20034;-68
2022/08/07 11:18:51;;;;;;;3.08;2.17;;;;;;;26.19;34.09;102381.06;5215957;28;20100;-69
2022/08/07 11:21:57;;;;;;;4.30;1.95;;;;;;;26.26;34.87;102390.00;5215985;28;20025;-68
2022/08/07 11:24:50;;;;;;;2.83;2.17;;;;;;;26.40;35.00;102378.31;5214926;28;20057;-68
2022/08/07 11:27:40;;;;;;;;;;;;;;;27.09;34.48;102376.56;5214709;28;20424;-68
2022/08/07 11:30:17;;;;;;;3.25;2.42;;;;;;;26.50;34.94;102379.81;5215793;28;19921;-69
2022/08/07 11:32:55;;;;;;;4.45;2.20;;;;;;;26.64;35.19;102376.19;5210670;28;20042;-69
2022/08/07 11:35:35;;;;;;;3.58;2.20;;;;;;;26.63;33.63;102374.50;5211821;28;20040;-68
2022/08/07 11:38:13;;;;;;;4.40;2.10;;;;;;;26.30;33.34;102369.75;5215003;28;20030;-67
2022/08/07 11:40:48;;;;;;;3.70;2.30;;;;;;;26.37;33.85;102370.63;5215040;28;20041;-68
2022/08/07 11:43:48;;;;;;;3.25;1.98;;;;;;;26.73;33.77;102364.22;5212751;28;20072;-69
2022/08/07 11:46:57;;;;;;;5.72;2.13;;;;;;;26.74;32.12;102363.16;5204632;28;20045;-68
2022/08/07 11:49:28;;;;;;;2.88;2.00;;;;;;;26.34;33.48;102357.59;5209244;28;20026;-68
2022/08/07 11:52:34;;;;;;;3.63;2.17;;;;;;;26.85;32.90;102362.59;5212286;28;20030;-68
2022/08/07 11:55:24;;;;;;;3.10;2.03;;;;;;;26.87;32.90;102363.25;5212828;28;20037;-67
2022/08/07 11:58:06;;;;;;;3.47;1.92;;;;;;;26.80;33.50;102357.00;5211482;28;20380;-67
2022/08/07 12:01:15;;;;;;;2.75;1.90;;;;;;;27.19;33.29;102351.97;5211769;28;20056;-68
2022/08/07 12:03:56;;;;;;;2.75;1.80;;;;;;;27.24;32.41;102350.34;5211522;28;20018;-68
2022/08/07 12:06:45;;;;;;;3.05;2.10;;;;;;;27.23;32.64;102351.34;5213696;28;20717;-69
2022/08/07 12:09:27;;;;;;;3.30;1.80;;;;;;;26.98;32.33;102361.00;5213760;28;20038;-69
2022/08/07 12:12:09;;;;;;;2.45;1.50;;;;;;;27.14;32.81;102345.34;5213736;28;20088;-69
2022/08/07 12:14:47;;;;;;;3.08;1.73;;;;;;;27.04;31.03;102344.03;5214724;28;20022;-69
2022/08/07 12:17:28;;;;;;;3.50;1.90;;;;;;;26.95;31.93;102345.28;5213456;28;20095;-69